PWSweather.com
Personal Weather Stations
Station Observations
KNCGREEN1
Sw Greensboro, Greensboro, NC 27407

Sw GreensboroGreensboro, NC 27407

Lat: 36.04, Lon: -79.87

Elevation: 870

Station Type: Davis

http://www.weathertrek.com

Latest ConditionsUpdated 12:40:08 PM EST Monday, Nov 24, 2014
Currently Today's Max Today's Min Today's Average
Temperature 69.3°F20.7°C 69.3°F20.7°C 57.5°F14.2°C 61.8°F16.6°C
Dew Point 55.3°F12.9°C 60.9°F16.1°C 54.0°F12.2°C 56.6°F13.7°C
Winds 3.0 mph SW4.8 kmh SW 11.0 mph S17.7 kmh S - 0.8 mph 1.3 kmh
Wind Gusts 10.0 mph16.1 kmh 13.0 mph20.9 kmh - -
Humidity 61% 95% 61% 84%
Pressure 29.64 in1003.7 mb 29.70 in1005.8 mb 29.60 in1002.4 mb -
Hour Temp Dew Point Humidity Winds Wind Gusts Pressure Precip Precip Rate Daily Precip Total
12:40 PM 69.3°F20.7°C 55.3°F12.9°C 61% 3.0 mph SW4.8 kmh SW 10.0 mph16.1 kmh 29.64 in1003.7 mb 0.00 in0.0 mm 0.00 in/hr0.0 mm/hr 0.01 in0.3 mm
12:35 PM 69.3°F20.7°C 55.3°F12.9°C 61% 1.0 mph S1.6 kmh S 6.0 mph9.7 kmh 29.64 in1003.7 mb 0.00 in0.0 mm 0.00 in/hr0.0 mm/hr 0.01 in0.3 mm
12:30 PM 69.1°F20.6°C 55.6°F13.1°C 62% Calm Calm 10.0 mph16.1 kmh 29.65 in1004.1 mb 0.00 in0.0 mm 0.00 in/hr0.0 mm/hr 0.01 in0.3 mm
12:25 PM 68.9°F20.5°C 56.2°F13.4°C 64% 2.0 mph SW3.2 kmh SW 10.0 mph16.1 kmh 29.65 in1004.1 mb 0.00 in0.0 mm 0.00 in/hr0.0 mm/hr 0.01 in0.3 mm
12:20 PM 68.8°F20.4°C 55.7°F13.2°C 63% 3.0 mph NW4.8 kmh NW 10.0 mph16.1 kmh 29.65 in1004.1 mb 0.00 in0.0 mm 0.00 in/hr0.0 mm/hr 0.01 in0.3 mm
12:15 PM 68.6°F20.3°C 55.5°F13.1°C 63% 2.0 mph WSW3.2 kmh WSW 8.0 mph12.9 kmh 29.66 in1004.4 mb 0.00 in0.0 mm 0.00 in/hr0.0 mm/hr 0.01 in0.3 mm
12:10 PM 68.6°F20.3°C 56.0°F13.3°C 64% 3.0 mph SW4.8 kmh SW 8.0 mph12.9 kmh 29.66 in1004.4 mb 0.00 in0.0 mm 0.00 in/hr0.0 mm/hr 0.01 in0.3 mm
12:05 PM 68.4°F20.2°C 56.2°F13.4°C 65% 5.0 mph ESE8.0 kmh ESE 8.0 mph12.9 kmh 29.66 in1004.4 mb 0.00 in0.0 mm 0.00 in/hr0.0 mm/hr 0.01 in0.3 mm
12:00 PM 68.3°F20.2°C 56.1°F13.4°C 65% 1.0 mph S1.6 kmh S 12.0 mph19.3 kmh 29.66 in1004.4 mb 0.00 in0.0 mm 0.00 in/hr0.0 mm/hr 0.01 in0.3 mm
11:55 AM 67.9°F19.9°C 55.7°F13.2°C 65% 3.0 mph W4.8 kmh W 12.0 mph19.3 kmh 29.67 in1004.7 mb 0.00 in0.0 mm 0.00 in/hr0.0 mm/hr 0.01 in0.3 mm
11:50 AM 67.8°F19.9°C 56.5°F13.6°C 67% 1.0 mph SW1.6 kmh SW 6.0 mph9.7 kmh 29.67 in1004.7 mb 0.00 in0.0 mm 0.00 in/hr0.0 mm/hr 0.01 in0.3 mm
11:45 AM 67.8°F19.9°C 55.6°F13.1°C 65% Calm Calm 13.0 mph20.9 kmh 29.68 in1005.1 mb 0.00 in0.0 mm 0.00 in/hr0.0 mm/hr 0.01 in0.3 mm
11:40 AM 67.9°F19.9°C 55.7°F13.2°C 65% 1.0 mph WSW1.6 kmh WSW 7.0 mph11.3 kmh 29.68 in1005.1 mb 0.00 in0.0 mm 0.00 in/hr0.0 mm/hr 0.01 in0.3 mm
11:35 AM 67.9°F19.9°C 56.1°F13.4°C 66% 1.0 mph SSE1.6 kmh SSE 3.0 mph4.8 kmh 29.68 in1005.1 mb 0.00 in0.0 mm 0.00 in/hr0.0 mm/hr 0.01 in0.3 mm
11:30 AM 67.6°F19.8°C 55.9°F13.3°C 66% 2.0 mph WSW3.2 kmh WSW 12.0 mph19.3 kmh 29.68 in1005.1 mb 0.00 in0.0 mm 0.00 in/hr0.0 mm/hr 0.01 in0.3 mm
11:25 AM 67.4°F19.7°C 56.1°F13.4°C 67% 1.0 mph WSW1.6 kmh WSW 12.0 mph19.3 kmh 29.68 in1005.1 mb 0.00 in0.0 mm 0.00 in/hr0.0 mm/hr 0.01 in0.3 mm
11:20 AM 67.1°F19.5°C 56.2°F13.4°C 68% Calm Calm 11.0 mph17.7 kmh 29.68 in1005.1 mb 0.00 in0.0 mm 0.00 in/hr0.0 mm/hr 0.01 in0.3 mm
11:15 AM 67.1°F19.5°C 56.2°F13.4°C 68% 6.0 mph WNW9.7 kmh WNW 7.0 mph11.3 kmh 29.69 in1005.4 mb 0.00 in0.0 mm 0.00 in/hr0.0 mm/hr 0.01 in0.3 mm
11:10 AM 66.9°F19.4°C 56.4°F13.6°C 69% Calm Calm 6.0 mph9.7 kmh 29.69 in1005.4 mb 0.00 in0.0 mm 0.00 in/hr0.0 mm/hr 0.01 in0.3 mm
11:05 AM 66.6°F19.2°C 56.1°F13.4°C 69% 1.0 mph SW1.6 kmh SW 6.0 mph9.7 kmh 29.69 in1005.4 mb 0.00 in0.0 mm 0.00 in/hr0.0 mm/hr 0.01 in0.3 mm
11:00 AM 66.4°F19.1°C 56.3°F13.5°C 70% Calm Calm 8.0 mph12.9 kmh 29.69 in1005.4 mb 0.00 in0.0 mm 0.00 in/hr0.0 mm/hr 0.01 in0.3 mm
10:55 AM 66.1°F18.9°C 56.4°F13.6°C 71% Calm Calm 8.0 mph12.9 kmh 29.70 in1005.8 mb 0.00 in0.0 mm 0.00 in/hr0.0 mm/hr 0.01 in0.3 mm
10:50 AM 65.8°F18.8°C 55.8°F13.2°C 70% 3.0 mph SW4.8 kmh SW 8.0 mph12.9 kmh 29.70 in1005.8 mb 0.00 in0.0 mm 0.00 in/hr0.0 mm/hr 0.01 in0.3 mm
10:45 AM 65.8°F18.8°C 56.5°F13.6°C 72% 11.0 mph S17.7 kmh S 11.0 mph17.7 kmh 29.70 in1005.8 mb 0.00 in0.0 mm 0.00 in/hr0.0 mm/hr 0.01 in0.3 mm
10:40 AM 65.5°F18.6°C 56.6°F13.7°C 73% 3.0 mph SW4.8 kmh SW 5.0 mph8.0 kmh 29.70 in1005.8 mb 0.00 in0.0 mm 0.00 in/hr0.0 mm/hr 0.01 in0.3 mm
10:35 AM 65.0°F18.3°C 56.2°F13.4°C 73% Calm Calm 5.0 mph8.0 kmh 29.70 in1005.8 mb 0.00 in0.0 mm 0.00 in/hr0.0 mm/hr 0.01 in0.3 mm
10:30 AM 64.7°F18.2°C 56.6°F13.7°C 75% 3.0 mph WSW4.8 kmh WSW 7.0 mph11.3 kmh 29.70 in1005.8 mb 0.00 in0.0 mm 0.00 in/hr0.0 mm/hr 0.01 in0.3 mm
10:25 AM 64.2°F17.9°C 56.1°F13.4°C 75% 3.0 mph NW4.8 kmh NW 7.0 mph11.3 kmh 29.70 in1005.8 mb 0.00 in0.0 mm 0.00 in/hr0.0 mm/hr 0.01 in0.3 mm
10:20 AM 63.9°F17.7°C 56.2°F13.4°C 76% 2.0 mph NW3.2 kmh NW 6.0 mph9.7 kmh 29.70 in1005.8 mb 0.00 in0.0 mm 0.00 in/hr0.0 mm/hr 0.01 in0.3 mm
10:15 AM 63.9°F17.7°C 56.2°F13.4°C 76% 2.0 mph SSW3.2 kmh SSW 8.0 mph12.9 kmh 29.70 in1005.8 mb 0.00 in0.0 mm 0.00 in/hr0.0 mm/hr 0.01 in0.3 mm
10:10 AM 63.7°F17.6°C 56.0°F13.3°C 76% Calm Calm 8.0 mph12.9 kmh 29.70 in1005.8 mb 0.00 in0.0 mm 0.00 in/hr0.0 mm/hr 0.01 in0.3 mm
10:05 AM 63.7°F17.6°C 56.4°F13.6°C 77% 1.0 mph SW1.6 kmh SW 5.0 mph8.0 kmh 29.70 in1005.8 mb 0.00 in0.0 mm 0.00 in/hr0.0 mm/hr 0.01 in0.3 mm
10:00 AM 63.7°F17.6°C 56.4°F13.6°C 77% Calm Calm 6.0 mph9.7 kmh 29.70 in1005.8 mb 0.00 in0.0 mm 0.00 in/hr0.0 mm/hr 0.01 in0.3 mm
09:55 AM 63.7°F17.6°C 56.4°F13.6°C 77% Calm Calm 6.0 mph9.7 kmh 29.70 in1005.8 mb 0.00 in0.0 mm 0.00 in/hr0.0 mm/hr 0.01 in0.3 mm
09:50 AM 63.9°F17.7°C 56.6°F13.7°C 77% 2.0 mph SW3.2 kmh SW 4.0 mph6.4 kmh 29.70 in1005.8 mb 0.00 in0.0 mm 0.00 in/hr0.0 mm/hr 0.01 in0.3 mm
09:45 AM 63.9°F17.7°C 56.6°F13.7°C 77% 1.0 mph SW1.6 kmh SW 7.0 mph11.3 kmh 29.69 in1005.4 mb 0.00 in0.0 mm 0.00 in/hr0.0 mm/hr 0.01 in0.3 mm
09:40 AM 63.9°F17.7°C 56.9°F13.8°C 78% Calm Calm 7.0 mph11.3 kmh 29.69 in1005.4 mb 0.00 in0.0 mm 0.00 in/hr0.0 mm/hr 0.01 in0.3 mm
09:35 AM 63.9°F17.7°C 56.9°F13.8°C 78% 1.0 mph SSE1.6 kmh SSE 7.0 mph11.3 kmh 29.69 in1005.4 mb 0.00 in0.0 mm 0.00 in/hr0.0 mm/hr 0.01 in0.3 mm
09:30 AM 63.7°F17.6°C 56.7°F13.7°C 78% 1.0 mph WSW1.6 kmh WSW 6.0 mph9.7 kmh 29.69 in1005.4 mb 0.00 in0.0 mm 0.00 in/hr0.0 mm/hr 0.01 in0.3 mm
09:25 AM 63.5°F17.5°C 56.5°F13.6°C 78% Calm Calm 4.0 mph6.4 kmh 29.69 in1005.4 mb 0.00 in0.0 mm 0.00 in/hr0.0 mm/hr 0.01 in0.3 mm
09:20 AM 62.9°F17.2°C 56.6°F13.7°C 80% Calm Calm 3.0 mph4.8 kmh 29.69 in1005.4 mb 0.00 in0.0 mm 0.00 in/hr0.0 mm/hr 0.01 in0.3 mm
09:15 AM 62.4°F16.9°C 56.5°F13.6°C 81% Calm Calm 4.0 mph6.4 kmh 29.70 in1005.8 mb 0.00 in0.0 mm 0.00 in/hr0.0 mm/hr 0.01 in0.3 mm
09:10 AM 62.0°F16.7°C 56.5°F13.6°C 82% 1.0 mph SW1.6 kmh SW 3.0 mph4.8 kmh 29.70 in1005.8 mb 0.00 in0.0 mm 0.00 in/hr0.0 mm/hr 0.01 in0.3 mm
09:05 AM 61.6°F16.4°C 56.1°F13.4°C 82% Calm Calm 3.0 mph4.8 kmh 29.70 in1005.8 mb 0.00 in0.0 mm 0.00 in/hr0.0 mm/hr 0.01 in0.3 mm
09:00 AM 61.3°F16.3°C 55.8°F13.2°C 82% 1.0 mph WSW1.6 kmh WSW 6.0 mph9.7 kmh 29.70 in1005.8 mb 0.00 in0.0 mm 0.00 in/hr0.0 mm/hr 0.01 in0.3 mm
08:55 AM 61.0°F16.1°C 55.8°F13.2°C 83% Calm Calm 6.0 mph9.7 kmh 29.70 in1005.8 mb 0.00 in0.0 mm 0.00 in/hr0.0 mm/hr 0.01 in0.3 mm
08:50 AM 60.9°F16.1°C 55.7°F13.2°C 83% 1.0 mph E1.6 kmh E 3.0 mph4.8 kmh 29.70 in1005.8 mb 0.00 in0.0 mm 0.00 in/hr0.0 mm/hr 0.01 in0.3 mm
08:45 AM 60.5°F15.8°C 55.7°F13.2°C 84% 1.0 mph E1.6 kmh E 6.0 mph9.7 kmh 29.70 in1005.8 mb 0.00 in0.0 mm 0.00 in/hr0.0 mm/hr 0.01 in0.3 mm
08:40 AM 60.2°F15.7°C 55.4°F13.0°C 84% Calm Calm 5.0 mph8.0 kmh 29.70 in1005.8 mb 0.00 in0.0 mm 0.00 in/hr0.0 mm/hr 0.01 in0.3 mm
08:35 AM 59.9°F15.5°C 55.4°F13.0°C 85% Calm Calm 3.0 mph4.8 kmh 29.70 in1005.8 mb 0.00 in0.0 mm 0.00 in/hr0.0 mm/hr 0.01 in0.3 mm
08:30 AM 59.6°F15.3°C 55.4°F13.0°C 86% Calm Calm 7.0 mph11.3 kmh 29.70 in1005.8 mb 0.00 in0.0 mm 0.00 in/hr0.0 mm/hr 0.01 in0.3 mm
08:25 AM 59.5°F15.3°C 55.3°F12.9°C 86% 2.0 mph SW3.2 kmh SW 7.0 mph11.3 kmh 29.69 in1005.4 mb 0.00 in0.0 mm 0.00 in/hr0.0 mm/hr 0.01 in0.3 mm
08:20 AM 59.2°F15.1°C 55.3°F12.9°C 87% Calm Calm 1.0 mph1.6 kmh 29.69 in1005.4 mb 0.00 in0.0 mm 0.00 in/hr0.0 mm/hr 0.01 in0.3 mm
08:15 AM 58.9°F14.9°C 55.0°F12.8°C 87% Calm Calm 3.0 mph4.8 kmh 29.70 in1005.8 mb 0.00 in0.0 mm 0.00 in/hr0.0 mm/hr 0.01 in0.3 mm
08:10 AM 58.7°F14.8°C 54.9°F12.7°C 87% Calm Calm 3.0 mph4.8 kmh 29.70 in1005.8 mb 0.00 in0.0 mm 0.00 in/hr0.0 mm/hr 0.01 in0.3 mm
08:05 AM 58.3°F14.6°C 54.8°F12.7°C 88% Calm Calm 2.0 mph3.2 kmh 29.70 in1005.8 mb 0.00 in0.0 mm 0.00 in/hr0.0 mm/hr 0.01 in0.3 mm
08:00 AM 58.0°F14.4°C 54.8°F12.7°C 89% 1.0 mph SE1.6 kmh SE 4.0 mph6.4 kmh 29.70 in1005.8 mb 0.00 in0.0 mm 0.00 in/hr0.0 mm/hr 0.01 in0.3 mm
07:55 AM 57.5°F14.2°C 54.0°F12.2°C 88% 1.0 mph S1.6 kmh S 2.0 mph3.2 kmh 29.69 in1005.4 mb 0.00 in0.0 mm 0.00 in/hr0.0 mm/hr 0.01 in0.3 mm
07:50 AM 57.5°F14.2°C 54.0°F12.2°C 88% Calm Calm 1.0 mph1.6 kmh 29.69 in1005.4 mb 0.00 in0.0 mm 0.00 in/hr0.0 mm/hr 0.01 in0.3 mm
07:45 AM 57.5°F14.2°C 54.0°F12.2°C 88% Calm Calm 3.0 mph4.8 kmh 29.68 in1005.1 mb 0.00 in0.0 mm 0.00 in/hr0.0 mm/hr 0.01 in0.3 mm
07:40 AM 57.5°F14.2°C 54.0°F12.2°C 88% Calm Calm 2.0 mph3.2 kmh 29.68 in1005.1 mb 0.00 in0.0 mm 0.00 in/hr0.0 mm/hr 0.01 in0.3 mm
07:35 AM 57.5°F14.2°C 54.0°F12.2°C 88% Calm Calm 2.0 mph3.2 kmh 29.68 in1005.1 mb 0.00 in0.0 mm 0.00 in/hr0.0 mm/hr 0.01 in0.3 mm
07:30 AM 57.5°F14.2°C 54.0°F12.2°C 88% 2.0 mph S3.2 kmh S 2.0 mph3.2 kmh 29.68 in1005.1 mb 0.00 in0.0 mm 0.00 in/hr0.0 mm/hr 0.01 in0.3 mm
07:25 AM 57.8°F14.3°C 54.3°F12.4°C 88% Calm Calm 2.0 mph3.2 kmh 29.68 in1005.1 mb 0.00 in0.0 mm 0.00 in/hr0.0 mm/hr 0.01 in0.3 mm
07:20 AM 57.8°F14.3°C 54.0°F12.2°C 87% Calm Calm 1.0 mph1.6 kmh 29.68 in1005.1 mb 0.00 in0.0 mm 0.00 in/hr0.0 mm/hr 0.01 in0.3 mm
07:15 AM 58.0°F14.4°C 54.5°F12.5°C 88% Calm Calm 7.0 mph11.3 kmh 29.67 in1004.7 mb 0.00 in0.0 mm 0.00 in/hr0.0 mm/hr 0.01 in0.3 mm
07:10 AM 58.0°F14.4°C 54.5°F12.5°C 88% Calm Calm 7.0 mph11.3 kmh 29.67 in1004.7 mb 0.00 in0.0 mm 0.00 in/hr0.0 mm/hr 0.01 in0.3 mm
07:05 AM 58.0°F14.4°C 54.8°F12.7°C 89% 3.0 mph WSW4.8 kmh WSW 7.0 mph11.3 kmh 29.67 in1004.7 mb 0.00 in0.0 mm 0.00 in/hr0.0 mm/hr 0.01 in0.3 mm
07:00 AM 57.8°F14.3°C 54.3°F12.4°C 88% Calm Calm 7.0 mph11.3 kmh 29.67 in1004.7 mb 0.00 in0.0 mm 0.00 in/hr0.0 mm/hr 0.01 in0.3 mm
06:55 AM 57.8°F14.3°C 54.3°F12.4°C 88% 2.0 mph E3.2 kmh E 7.0 mph11.3 kmh 29.67 in1004.7 mb 0.00 in0.0 mm 0.00 in/hr0.0 mm/hr 0.01 in0.3 mm
06:50 AM 57.8°F14.3°C 54.3°F12.4°C 88% 4.0 mph SW6.4 kmh SW 7.0 mph11.3 kmh 29.67 in1004.7 mb 0.00 in0.0 mm 0.00 in/hr0.0 mm/hr 0.01 in0.3 mm
06:45 AM 58.0°F14.4°C 54.5°F12.5°C 88% Calm Calm 11.0 mph17.7 kmh 29.66 in1004.4 mb 0.00 in0.0 mm 0.00 in/hr0.0 mm/hr 0.01 in0.3 mm
06:40 AM 58.0°F14.4°C 54.5°F12.5°C 88% 4.0 mph SW6.4 kmh SW 11.0 mph17.7 kmh 29.66 in1004.4 mb 0.00 in0.0 mm 0.00 in/hr0.0 mm/hr 0.01 in0.3 mm
06:35 AM 58.1°F14.5°C 54.9°F12.7°C 89% Calm Calm 11.0 mph17.7 kmh 29.66 in1004.4 mb 0.00 in0.0 mm 0.00 in/hr0.0 mm/hr 0.01 in0.3 mm
06:30 AM 58.0°F14.4°C 54.8°F12.7°C 89% Calm Calm 7.0 mph11.3 kmh 29.66 in1004.4 mb 0.00 in0.0 mm 0.00 in/hr0.0 mm/hr 0.01 in0.3 mm
06:25 AM 58.0°F14.4°C 54.5°F12.5°C 88% Calm Calm 7.0 mph11.3 kmh 29.66 in1004.4 mb 0.00 in0.0 mm 0.00 in/hr0.0 mm/hr 0.01 in0.3 mm
06:20 AM 58.0°F14.4°C 54.8°F12.7°C 89% Calm Calm 2.0 mph3.2 kmh 29.66 in1004.4 mb 0.00 in0.0 mm 0.00 in/hr0.0 mm/hr 0.01 in0.3 mm
06:15 AM 58.1°F14.5°C 54.6°F12.6°C 88% 2.0 mph NNW3.2 kmh NNW 6.0 mph9.7 kmh 29.66 in1004.4 mb 0.00 in0.0 mm 0.00 in/hr0.0 mm/hr 0.01 in0.3 mm
06:10 AM 58.3°F14.6°C 54.8°F12.7°C 88% Calm Calm 6.0 mph9.7 kmh 29.66 in1004.4 mb 0.00 in0.0 mm 0.00 in/hr0.0 mm/hr 0.01 in0.3 mm
06:05 AM 58.4°F14.7°C 54.6°F12.6°C 87% Calm Calm 6.0 mph9.7 kmh 29.66 in1004.4 mb 0.00 in0.0 mm 0.00 in/hr0.0 mm/hr 0.01 in0.3 mm
06:00 AM 58.9°F14.9°C 55.0°F12.8°C 87% Calm Calm 4.0 mph6.4 kmh 29.66 in1004.4 mb 0.00 in0.0 mm 0.00 in/hr0.0 mm/hr 0.01 in0.3 mm
05:55 AM 59.2°F15.1°C 55.3°F12.9°C 87% Calm Calm 1.0 mph1.6 kmh 29.66 in1004.4 mb 0.00 in0.0 mm 0.00 in/hr0.0 mm/hr 0.01 in0.3 mm
05:50 AM 59.3°F15.2°C 55.4°F13.0°C 87% Calm Calm 1.0 mph1.6 kmh 29.66 in1004.4 mb 0.00 in0.0 mm 0.00 in/hr0.0 mm/hr 0.01 in0.3 mm
05:45 AM 59.5°F15.3°C 55.6°F13.1°C 87% 1.0 mph SW1.6 kmh SW 2.0 mph3.2 kmh 29.66 in1004.4 mb 0.00 in0.0 mm 0.00 in/hr0.0 mm/hr 0.01 in0.3 mm
05:40 AM 59.6°F15.3°C 55.7°F13.2°C 87% Calm Calm 2.0 mph3.2 kmh 29.66 in1004.4 mb 0.00 in0.0 mm 0.00 in/hr0.0 mm/hr 0.01 in0.3 mm
05:35 AM 59.6°F15.3°C 55.7°F13.2°C 87% Calm Calm 2.0 mph3.2 kmh 29.66 in1004.4 mb 0.00 in0.0 mm 0.00 in/hr0.0 mm/hr 0.01 in0.3 mm
05:30 AM 59.6°F15.3°C 55.7°F13.2°C 87% Calm Calm 5.0 mph8.0 kmh 29.66 in1004.4 mb 0.00 in0.0 mm 0.00 in/hr0.0 mm/hr 0.01 in0.3 mm
05:25 AM 59.8°F15.4°C 55.9°F13.3°C 87% 1.0 mph SW1.6 kmh SW 2.0 mph3.2 kmh 29.66 in1004.4 mb 0.00 in0.0 mm 0.00 in/hr0.0 mm/hr 0.01 in0.3 mm
05:20 AM 59.8°F15.4°C 55.9°F13.3°C 87% Calm Calm 1.0 mph1.6 kmh 29.66 in1004.4 mb 0.00 in0.0 mm 0.00 in/hr0.0 mm/hr 0.01 in0.3 mm
05:15 AM 59.8°F15.4°C 55.9°F13.3°C 87% Calm Calm 5.0 mph8.0 kmh 29.66 in1004.4 mb 0.00 in0.0 mm 0.00 in/hr0.0 mm/hr 0.01 in0.3 mm
05:10 AM 59.8°F15.4°C 55.9°F13.3°C 87% 1.0 mph SW1.6 kmh SW 5.0 mph8.0 kmh 29.66 in1004.4 mb 0.00 in0.0 mm 0.00 in/hr0.0 mm/hr 0.01 in0.3 mm
05:05 AM 59.8°F15.4°C 55.9°F13.3°C 87% Calm Calm 5.0 mph8.0 kmh 29.66 in1004.4 mb 0.00 in0.0 mm 0.00 in/hr0.0 mm/hr 0.01 in0.3 mm
05:00 AM 59.8°F15.4°C 55.9°F13.3°C 87% 1.0 mph W1.6 kmh W 3.0 mph4.8 kmh 29.66 in1004.4 mb 0.00 in0.0 mm 0.00 in/hr0.0 mm/hr 0.01 in0.3 mm
04:55 AM 59.8°F15.4°C 55.9°F13.3°C 87% Calm Calm 1.0 mph1.6 kmh 29.66 in1004.4 mb 0.00 in0.0 mm 0.00 in/hr0.0 mm/hr 0.01 in0.3 mm
04:50 AM 59.9°F15.5°C 56.0°F13.3°C 87% Calm Calm 1.0 mph1.6 kmh 29.66 in1004.4 mb 0.00 in0.0 mm 0.00 in/hr0.0 mm/hr 0.01 in0.3 mm
04:45 AM 60.1°F15.6°C 56.2°F13.4°C 87% Calm Calm 3.0 mph4.8 kmh 29.66 in1004.4 mb 0.00 in0.0 mm 0.00 in/hr0.0 mm/hr 0.01 in0.3 mm
04:40 AM 60.1°F15.6°C 56.2°F13.4°C 87% Calm Calm 3.0 mph4.8 kmh 29.66 in1004.4 mb 0.00 in0.0 mm 0.00 in/hr0.0 mm/hr 0.01 in0.3 mm
04:35 AM 60.2°F15.7°C 56.0°F13.3°C 86% 1.0 mph SW1.6 kmh SW 1.0 mph1.6 kmh 29.66 in1004.4 mb 0.00 in0.0 mm 0.00 in/hr0.0 mm/hr 0.01 in0.3 mm
04:30 AM 60.4°F15.8°C 56.5°F13.6°C 87% Calm Calm 8.0 mph12.9 kmh 29.66 in1004.4 mb 0.00 in0.0 mm 0.00 in/hr0.0 mm/hr 0.01 in0.3 mm
04:25 AM 60.4°F15.8°C 56.5°F13.6°C 87% 1.0 mph SW1.6 kmh SW 8.0 mph12.9 kmh 29.66 in1004.4 mb 0.00 in0.0 mm 0.00 in/hr0.0 mm/hr 0.01 in0.3 mm
04:20 AM 60.4°F15.8°C 56.5°F13.6°C 87% 1.0 mph WSW1.6 kmh WSW 3.0 mph4.8 kmh 29.66 in1004.4 mb 0.00 in0.0 mm 0.00 in/hr0.0 mm/hr 0.01 in0.3 mm
04:15 AM 60.4°F15.8°C 56.5°F13.6°C 87% Calm Calm 7.0 mph11.3 kmh 29.66 in1004.4 mb 0.00 in0.0 mm 0.00 in/hr0.0 mm/hr 0.01 in0.3 mm
04:10 AM 60.5°F15.8°C 56.3°F13.5°C 86% Calm Calm 7.0 mph11.3 kmh 29.66 in1004.4 mb 0.00 in0.0 mm 0.00 in/hr0.0 mm/hr 0.01 in0.3 mm
04:05 AM 60.5°F15.8°C 56.3°F13.5°C 86% Calm Calm 2.0 mph3.2 kmh 29.66 in1004.4 mb 0.00 in0.0 mm 0.00 in/hr0.0 mm/hr 0.01 in0.3 mm
04:00 AM 60.7°F15.9°C 56.2°F13.4°C 85% 1.0 mph WSW1.6 kmh WSW 2.0 mph3.2 kmh 29.66 in1004.4 mb 0.00 in0.0 mm 0.00 in/hr0.0 mm/hr 0.01 in0.3 mm
03:55 AM 60.9°F16.1°C 56.4°F13.6°C 85% Calm Calm 2.0 mph3.2 kmh 29.65 in1004.1 mb 0.00 in0.0 mm 0.00 in/hr0.0 mm/hr 0.01 in0.3 mm
03:50 AM 60.9°F16.1°C 56.0°F13.3°C 84% Calm Calm 1.0 mph1.6 kmh 29.65 in1004.1 mb 0.00 in0.0 mm 0.00 in/hr0.0 mm/hr 0.01 in0.3 mm
03:45 AM 60.9°F16.1°C 56.0°F13.3°C 84% Calm Calm 7.0 mph11.3 kmh 29.66 in1004.4 mb 0.00 in0.0 mm 0.00 in/hr0.0 mm/hr 0.01 in0.3 mm
03:40 AM 60.9°F16.1°C 56.4°F13.6°C 85% 1.0 mph WSW1.6 kmh WSW 7.0 mph11.3 kmh 29.66 in1004.4 mb 0.00 in0.0 mm 0.00 in/hr0.0 mm/hr 0.01 in0.3 mm
03:35 AM 61.0°F16.1°C 56.5°F13.6°C 85% Calm Calm 7.0 mph11.3 kmh 29.66 in1004.4 mb 0.00 in0.0 mm 0.00 in/hr0.0 mm/hr 0.01 in0.3 mm
03:30 AM 61.0°F16.1°C 56.8°F13.8°C 86% 1.0 mph WSW1.6 kmh WSW 7.0 mph11.3 kmh 29.65 in1004.1 mb 0.00 in0.0 mm 0.00 in/hr0.0 mm/hr 0.01 in0.3 mm
03:25 AM 61.2°F16.2°C 57.3°F14.1°C 87% Calm Calm 7.0 mph11.3 kmh 29.65 in1004.1 mb 0.00 in0.0 mm 0.00 in/hr0.0 mm/hr 0.01 in0.3 mm
03:20 AM 61.0°F16.1°C 57.1°F13.9°C 87% Calm Calm 7.0 mph11.3 kmh 29.65 in1004.1 mb 0.00 in0.0 mm 0.00 in/hr0.0 mm/hr 0.01 in0.3 mm
03:15 AM 61.0°F16.1°C 57.1°F13.9°C 87% Calm Calm 3.0 mph4.8 kmh 29.65 in1004.1 mb 0.00 in0.0 mm 0.00 in/hr0.0 mm/hr 0.01 in0.3 mm
03:10 AM 61.2°F16.2°C 57.3°F14.1°C 87% 1.0 mph WSW1.6 kmh WSW 3.0 mph4.8 kmh 29.65 in1004.1 mb 0.00 in0.0 mm 0.00 in/hr0.0 mm/hr 0.01 in0.3 mm
03:05 AM 61.2°F16.2°C 57.3°F14.1°C 87% Calm Calm 3.0 mph4.8 kmh 29.65 in1004.1 mb 0.00 in0.0 mm 0.00 in/hr0.0 mm/hr 0.01 in0.3 mm
03:00 AM 61.3°F16.3°C 57.4°F14.1°C 87% Calm Calm 7.0 mph11.3 kmh 29.65 in1004.1 mb 0.00 in0.0 mm 0.00 in/hr0.0 mm/hr 0.01 in0.3 mm
02:55 AM 61.3°F16.3°C 57.4°F14.1°C 87% Calm Calm 7.0 mph11.3 kmh 29.65 in1004.1 mb 0.00 in0.0 mm 0.00 in/hr0.0 mm/hr 0.01 in0.3 mm
02:50 AM 61.3°F16.3°C 57.7°F14.3°C 88% Calm Calm 7.0 mph11.3 kmh 29.65 in1004.1 mb 0.00 in0.0 mm 0.00 in/hr0.0 mm/hr 0.01 in0.3 mm
02:45 AM 61.2°F16.2°C 57.9°F14.4°C 89% 1.0 mph SW1.6 kmh SW 7.0 mph11.3 kmh 29.64 in1003.7 mb 0.00 in0.0 mm 0.00 in/hr0.0 mm/hr 0.01 in0.3 mm
02:40 AM 61.2°F16.2°C 58.6°F14.8°C 91% 1.0 mph SW1.6 kmh SW 2.0 mph3.2 kmh 29.64 in1003.7 mb 0.00 in0.0 mm 0.00 in/hr0.0 mm/hr 0.01 in0.3 mm
02:35 AM 61.2°F16.2°C 58.6°F14.8°C 91% Calm Calm 2.0 mph3.2 kmh 29.64 in1003.7 mb 0.00 in0.0 mm 0.00 in/hr0.0 mm/hr 0.01 in0.3 mm
02:30 AM 61.0°F16.1°C 58.4°F14.7°C 91% Calm Calm 7.0 mph11.3 kmh 29.64 in1003.7 mb 0.00 in0.0 mm 0.00 in/hr0.0 mm/hr 0.01 in0.3 mm
02:25 AM 60.9°F16.1°C 58.3°F14.6°C 91% 1.0 mph SW1.6 kmh SW 7.0 mph11.3 kmh 29.64 in1003.7 mb 0.00 in0.0 mm 0.00 in/hr0.0 mm/hr 0.01 in0.3 mm
02:20 AM 61.0°F16.1°C 59.0°F15.0°C 93% 3.0 mph WSW4.8 kmh WSW 6.0 mph9.7 kmh 29.64 in1003.7 mb 0.00 in0.0 mm 0.00 in/hr0.0 mm/hr 0.01 in0.3 mm
02:15 AM 61.0°F16.1°C 59.0°F15.0°C 93% 2.0 mph SW3.2 kmh SW 6.0 mph9.7 kmh 29.63 in1003.4 mb 0.00 in0.0 mm 0.00 in/hr0.0 mm/hr 0.01 in0.3 mm
02:10 AM 61.0°F16.1°C 59.3°F15.2°C 94% 2.0 mph WSW3.2 kmh WSW 6.0 mph9.7 kmh 29.63 in1003.4 mb 0.00 in0.0 mm 0.00 in/hr0.0 mm/hr 0.01 in0.3 mm
02:05 AM 61.0°F16.1°C 59.0°F15.0°C 93% Calm Calm 6.0 mph9.7 kmh 29.63 in1003.4 mb 0.00 in0.0 mm 0.00 in/hr0.0 mm/hr 0.01 in0.3 mm
02:00 AM 61.2°F16.2°C 59.2°F15.1°C 93% 1.0 mph WSW1.6 kmh WSW 2.0 mph3.2 kmh 29.63 in1003.4 mb 0.00 in0.0 mm 0.00 in/hr0.0 mm/hr 0.01 in0.3 mm
01:55 AM 61.3°F16.3°C 59.6°F15.3°C 94% Calm Calm 2.0 mph3.2 kmh 29.62 in1003.0 mb 0.00 in0.0 mm 0.00 in/hr0.0 mm/hr 0.01 in0.3 mm
01:50 AM 61.3°F16.3°C 59.6°F15.3°C 94% Calm Calm 2.0 mph3.2 kmh 29.62 in1003.0 mb 0.00 in0.0 mm 0.00 in/hr0.0 mm/hr 0.01 in0.3 mm
01:45 AM 61.3°F16.3°C 59.3°F15.2°C 93% Calm Calm 3.0 mph4.8 kmh 29.61 in1002.7 mb 0.00 in0.0 mm 0.00 in/hr0.0 mm/hr 0.01 in0.3 mm
01:40 AM 61.3°F16.3°C 59.3°F15.2°C 93% Calm Calm 2.0 mph3.2 kmh 29.61 in1002.7 mb 0.00 in0.0 mm 0.00 in/hr0.0 mm/hr 0.01 in0.3 mm
01:35 AM 61.5°F16.4°C 59.8°F15.4°C 94% 1.0 mph SSE1.6 kmh SSE 2.0 mph3.2 kmh 29.61 in1002.7 mb 0.00 in0.0 mm 0.00 in/hr0.0 mm/hr 0.01 in0.3 mm
01:30 AM 61.6°F16.4°C 59.9°F15.5°C 94% Calm Calm 4.0 mph6.4 kmh 29.60 in1002.4 mb 0.00 in0.0 mm 0.00 in/hr0.0 mm/hr 0.01 in0.3 mm
01:25 AM 61.6°F16.4°C 59.9°F15.5°C 94% Calm Calm 4.0 mph6.4 kmh 29.60 in1002.4 mb 0.00 in0.0 mm 0.00 in/hr0.0 mm/hr 0.01 in0.3 mm
01:20 AM 61.8°F16.6°C 60.1°F15.6°C 94% Calm Calm 2.0 mph3.2 kmh 29.60 in1002.4 mb 0.00 in0.0 mm 0.00 in/hr0.0 mm/hr 0.01 in0.3 mm
01:15 AM 61.8°F16.6°C 60.1°F15.6°C 94% Calm Calm 6.0 mph9.7 kmh 29.60 in1002.4 mb 0.00 in0.0 mm 0.00 in/hr0.0 mm/hr 0.01 in0.3 mm
01:10 AM 61.6°F16.4°C 59.9°F15.5°C 94% Calm Calm 2.0 mph3.2 kmh 29.60 in1002.4 mb 0.00 in0.0 mm 0.00 in/hr0.0 mm/hr 0.01 in0.3 mm
01:05 AM 61.6°F16.4°C 59.9°F15.5°C 94% Calm Calm 1.0 mph1.6 kmh 29.60 in1002.4 mb 0.00 in0.0 mm 0.00 in/hr0.0 mm/hr 0.01 in0.3 mm
01:00 AM 61.6°F16.4°C 59.9°F15.5°C 94% Calm Calm 3.0 mph4.8 kmh 29.60 in1002.4 mb 0.00 in0.0 mm 0.00 in/hr0.0 mm/hr 0.01 in0.3 mm
12:55 AM 61.8°F16.6°C 60.1°F15.6°C 94% Calm Calm 3.0 mph4.8 kmh 29.60 in1002.4 mb 0.00 in0.0 mm 0.00 in/hr0.0 mm/hr 0.01 in0.3 mm
12:50 AM 61.6°F16.4°C 59.9°F15.5°C 94% 3.0 mph SW4.8 kmh SW 3.0 mph4.8 kmh 29.60 in1002.4 mb 0.00 in0.0 mm 0.00 in/hr0.0 mm/hr 0.01 in0.3 mm
12:45 AM 61.8°F16.6°C 60.1°F15.6°C 94% Calm Calm 3.0 mph4.8 kmh 29.61 in1002.7 mb 0.00 in0.0 mm 0.00 in/hr0.0 mm/hr 0.01 in0.3 mm
12:40 AM 61.8°F16.6°C 60.1°F15.6°C 94% Calm Calm 3.0 mph4.8 kmh 29.61 in1002.7 mb 0.00 in0.0 mm 0.00 in/hr0.0 mm/hr 0.01 in0.3 mm
12:35 AM 62.1°F16.7°C 60.4°F15.8°C 94% Calm Calm 3.0 mph4.8 kmh 29.61 in1002.7 mb 0.00 in0.0 mm 0.00 in/hr0.0 mm/hr 0.01 in0.3 mm
12:30 AM 62.1°F16.7°C 60.4°F15.8°C 94% Calm Calm 7.0 mph11.3 kmh 29.61 in1002.7 mb 0.00 in0.0 mm 0.00 in/hr0.0 mm/hr 0.01 in0.3 mm
12:25 AM 62.1°F16.7°C 60.4°F15.8°C 94% Calm Calm 3.0 mph4.8 kmh 29.61 in1002.7 mb 0.00 in0.0 mm 0.00 in/hr0.0 mm/hr 0.01 in0.3 mm
12:20 AM 62.3°F16.8°C 60.9°F16.1°C 95% Calm Calm 1.0 mph1.6 kmh 29.61 in1002.7 mb 0.00 in0.0 mm 0.00 in/hr0.0 mm/hr 0.01 in0.3 mm
12:15 AM 62.1°F16.7°C 60.4°F15.8°C 94% 1.0 mph SW1.6 kmh SW 6.0 mph9.7 kmh 29.61 in1002.7 mb 0.01 in0.3 mm 0.00 in/hr0.0 mm/hr 0.01 in0.3 mm
12:10 AM 62.1°F16.7°C 60.4°F15.8°C 94% Calm Calm 2.0 mph3.2 kmh 29.61 in1002.7 mb 0.01 in0.3 mm 0.00 in/hr0.0 mm/hr 0.01 in0.3 mm
12:05 AM 62.1°F16.7°C 60.4°F15.8°C 94% Calm Calm 2.0 mph3.2 kmh 29.61 in1002.7 mb 0.01 in0.3 mm 0.00 in/hr0.0 mm/hr 0.01 in0.3 mm
12:00 AM 62.3°F16.8°C 60.9°F16.1°C 95% 1.0 mph SE1.6 kmh SE 4.0 mph6.4 kmh 29.61 in1002.7 mb 0.01 in0.3 mm 0.00 in/hr0.0 mm/hr 0.01 in0.3 mm